Time;durP1;ratioP1;P1;durP2;ratioP2;P2;SDS_P1;SDS_P2;PMS_P1;PMS_P2;Temp;Humidity;BMP_temperature;BMP_pressure;BME280_temperature;BME280_humidity;BME280_pressure;Samples;Min_cycle;Max_cycle;Signal;HPM_P1;HPM_P2
2023/03/11 00:02:18;;;;;;;8.48;1.50;;;2.10;99.90;;;;;;5111173;28;20246;-73
2023/03/11 00:04:43;;;;;;;6.00;1.40;;;2.10;99.90;;;;;;5089017;28;20182;-74
2023/03/11 00:07:10;;;;;;;5.70;1.38;;;2.10;99.90;;;;;;5083215;27;20173;-73
2023/03/11 00:09:36;;;;;;;6.80;1.23;;;2.10;99.90;;;;;;5108842;28;20649;-73
2023/03/11 00:12:03;;;;;;;4.05;1.15;;;2.10;99.90;;;;;;5123590;27;20184;-72
2023/03/11 00:14:29;;;;;;;8.45;1.30;;;2.10;99.90;;;;;;5128471;27;20181;-74
2023/03/11 00:16:55;;;;;;;4.78;1.20;;;2.20;99.90;;;;;;5112961;27;20176;-74
2023/03/11 00:19:21;;;;;;;10.45;1.52;;;2.10;99.90;;;;;;5101226;27;20277;-73
2023/03/11 00:21:47;;;;;;;6.78;1.40;;;2.10;99.90;;;;;;5116679;27;20188;-73
2023/03/11 00:24:13;;;;;;;4.45;1.20;;;2.10;99.90;;;;;;5111075;28;20185;-74
2023/03/11 00:26:39;;;;;;;6.55;1.48;;;2.10;99.90;;;;;;5110238;27;20245;-72
2023/03/11 00:29:04;;;;;;;7.20;1.10;;;2.10;99.90;;;;;;5112856;28;20212;-73
2023/03/11 00:31:30;;;;;;;10.60;1.55;;;2.10;99.90;;;;;;5111723;28;20234;-73
2023/03/11 00:33:56;;;;;;;9.80;1.50;;;2.10;99.90;;;;;;5099527;27;20628;-74
2023/03/11 00:36:27;;;;;;;6.13;1.25;;;2.10;99.90;;;;;;5076498;28;20186;-73
2023/03/11 00:38:53;;;;;;;3.05;1.02;;;2.10;99.90;;;;;;5104380;27;20272;-73
2023/03/11 00:41:19;;;;;;;6.05;1.88;;;2.10;99.90;;;;;;5111997;27;20181;-73
2023/03/11 00:43:45;;;;;;;5.43;1.20;;;2.10;99.90;;;;;;5113738;27;20285;-73
2023/03/11 00:46:11;;;;;;;3.40;1.33;;;2.10;99.90;;;;;;5107130;28;20186;-74
2023/03/11 00:48:37;;;;;;;4.65;1.10;;;2.20;99.90;;;;;;5102633;27;20250;-73
2023/03/11 00:51:05;;;;;;;4.60;1.15;;;2.10;99.90;;;;;;5098942;28;20237;-72
2023/03/11 00:53:31;;;;;;;6.35;1.15;;;2.10;99.90;;;;;;5113351;28;20733;-73
2023/03/11 00:55:57;;;;;;;7.40;1.42;;;2.10;99.90;;;;;;5110579;28;20181;-72
2023/03/11 00:58:27;;;;;;;3.47;1.10;;;2.10;99.90;;;;;;5064973;28;20330;-74
2023/03/11 01:00:54;;;;;;;4.88;1.10;;;2.20;99.90;;;;;;5106035;28;20189;-73
2023/03/11 01:03:20;;;;;;;2.97;1.10;;;2.20;99.90;;;;;;5094759;28;20276;-73
2023/03/11 01:05:46;;;;;;;4.25;1.05;;;2.20;99.90;;;;;;5092397;28;20304;-74
2023/03/11 01:08:12;;;;;;;2.95;0.95;;;2.20;99.90;;;;;;5124470;27;20656;-74
2023/03/11 01:10:37;;;;;;;9.20;1.20;;;2.10;99.90;;;;;;5096790;28;20238;-74
2023/03/11 01:13:03;;;;;;;6.03;1.30;;;2.10;99.90;;;;;;5091974;28;20177;-73
2023/03/11 01:15:33;;;;;;;3.25;1.10;;;2.10;99.90;;;;;;5076094;28;20241;-75
2023/03/11 01:17:59;;;;;;;3.45;1.00;;;2.10;99.90;;;;;;5109546;28;20181;-74
2023/03/11 01:20:25;;;;;;;4.93;1.15;;;2.10;99.90;;;;;;5093713;28;20559;-74
2023/03/11 01:22:50;;;;;;;4.00;1.23;;;2.10;99.90;;;;;;5071277;28;20189;-74
2023/03/11 01:25:18;;;;;;;5.45;1.67;;;2.10;99.90;;;;;;5073753;28;20260;-74
2023/03/11 01:27:44;;;;;;;10.77;1.38;;;2.10;99.90;;;;;;5124544;28;20269;-72
2023/03/11 01:30:17;;;;;;;4.07;1.00;;;2.10;99.90;;;;;;5093190;28;20284;-72
2023/03/11 01:32:44;;;;;;;9.02;1.45;;;2.20;99.90;;;;;;5092461;28;20193;-74
2023/03/11 01:35:14;;;;;;;10.93;1.52;;;2.20;99.90;;;;;;5095131;28;20191;-73
2023/03/11 01:37:40;;;;;;;6.25;1.20;;;2.20;99.90;;;;;;5100943;28;20585;-75
2023/03/11 01:40:08;;;;;;;7.05;1.17;;;2.10;99.90;;;;;;5103079;28;20197;-74
2023/03/11 01:42:34;;;;;;;7.13;1.48;;;2.20;99.90;;;;;;5092735;28;20178;-73
2023/03/11 01:45:00;;;;;;;4.78;1.17;;;2.20;99.90;;;;;;5111697;28;20212;-73
2023/03/11 01:47:34;;;;;;;6.22;1.20;;;2.10;99.90;;;;;;5100908;28;20644;-73
2023/03/11 01:50:02;;;;;;;3.30;0.90;;;2.10;99.90;;;;;;5102474;28;20639;-76
2023/03/11 01:52:28;;;;;;;6.85;1.38;;;2.10;99.90;;;;;;5091663;28;20213;-73
2023/03/11 01:54:54;;;;;;;5.93;1.05;;;2.10;99.90;;;;;;5090167;28;20200;-74
2023/03/11 01:57:20;;;;;;;7.32;0.95;;;2.10;99.90;;;;;;5088618;28;20192;-72
2023/03/11 01:59:52;;;;;;;5.60;1.67;;;2.00;99.90;;;;;;5094390;28;20678;-75
2023/03/11 02:02:27;;;;;;;2.90;0.70;;;2.00;99.90;;;;;;5081787;28;20183;-74
2023/03/11 02:04:54;;;;;;;6.80;1.10;;;1.90;99.90;;;;;;5089106;28;20652;-71
2023/03/11 02:07:23;;;;;;;7.90;0.95;;;1.80;99.90;;;;;;5089184;28;20694;-72
2023/03/11 02:09:49;;;;;;;5.90;1.20;;;1.90;99.90;;;;;;5092971;28;20633;-73
2023/03/11 02:12:15;;;;;;;4.07;1.00;;;1.90;99.90;;;;;;5091047;28;20184;-73
2023/03/11 02:14:48;;;;;;;7.45;1.00;;;1.90;99.90;;;;;;5077139;28;20177;-73
2023/03/11 02:17:14;;;;;;;7.75;1.10;;;1.80;99.90;;;;;;5058428;28;20243;-73
2023/03/11 02:19:49;;;;;;;6.40;0.90;;;1.80;99.90;;;;;;5084933;28;20584;-72
2023/03/11 02:22:15;;;;;;;4.43;0.98;;;1.80;99.90;;;;;;5101115;28;20841;-72
2023/03/11 02:24:56;;;;;;;7.53;0.90;;;1.80;99.90;;;;;;5099728;27;20195;-72
2023/03/11 02:27:24;;;;;;;6.07;1.00;;;1.80;99.90;;;;;;5093911;28;20181;-74
2023/03/11 02:29:50;;;;;;;3.42;1.00;;;1.80;99.90;;;;;;5088555;28;20230;-72
2023/03/11 02:32:18;;;;;;;4.88;0.93;;;1.80;99.90;;;;;;5075946;28;20181;-73
2023/03/11 02:34:45;;;;;;;2.72;0.90;;;1.80;99.90;;;;;;5097293;28;20184;-72
2023/03/11 02:37:15;;;;;;;2.72;0.90;;;1.80;99.90;;;;;;5074252;28;20274;-73
2023/03/11 02:39:49;;;;;;;3.10;0.88;;;1.80;99.90;;;;;;5090817;28;20555;-73
2023/03/11 02:42:24;;;;;;;5.10;1.10;;;1.80;99.90;;;;;;5076675;28;20618;-73
2023/03/11 02:45:12;;;;;;;3.72;1.27;;;1.80;99.90;;;;;;5097147;28;20647;-73
2023/03/11 02:47:39;;;;;;;2.50;0.80;;;1.80;99.90;;;;;;5119312;27;20217;-73
2023/03/11 02:50:10;;;;;;;4.60;0.90;;;1.80;99.90;;;;;;5074864;28;20196;-73
2023/03/11 02:52:37;;;;;;;4.50;0.80;;;1.80;99.90;;;;;;5096929;28;20286;-72
2023/03/11 02:55:03;;;;;;;1.65;0.82;;;1.80;99.90;;;;;;5096416;28;20717;-72
2023/03/11 02:57:29;;;;;;;0.88;0.70;;;1.80;99.90;;;;;;5115185;28;20210;-72
2023/03/11 02:59:55;;;;;;;5.68;0.98;;;1.80;99.90;;;;;;5095989;28;20185;-73
2023/03/11 03:02:21;;;;;;;5.80;1.20;;;1.70;99.90;;;;;;5083424;28;20196;-72
2023/03/11 03:04:48;;;;;;;4.47;1.00;;;1.70;99.90;;;;;;5079947;28;20181;-75
2023/03/11 03:07:14;;;;;;;8.48;1.30;;;1.70;99.90;;;;;;5075990;28;20193;-73
2023/03/11 03:09:40;;;;;;;5.28;0.98;;;1.70;99.90;;;;;;5112232;28;20196;-73
2023/03/11 03:12:06;;;;;;;3.05;0.80;;;1.60;99.90;;;;;;5097391;28;20217;-72
2023/03/11 03:14:33;;;;;;;5.95;1.10;;;1.70;99.90;;;;;;5101027;28;20280;-73
2023/03/11 03:17:00;;;;;;;1.40;0.75;;;1.60;99.90;;;;;;5096859;28;20204;-72
2023/03/11 03:19:26;;;;;;;4.65;0.73;;;1.60;99.90;;;;;;5115893;27;20196;-72
2023/03/11 03:21:53;;;;;;;6.40;1.05;;;1.60;99.90;;;;;;5079125;28;20271;-78
2023/03/11 03:24:20;;;;;;;2.88;0.93;;;1.60;99.90;;;;;;5059819;28;20177;-77
2023/03/11 03:26:47;;;;;;;5.85;0.93;;;1.60;99.90;;;;;;5095035;28;20221;-74
2023/03/11 03:29:13;;;;;;;5.22;1.23;;;1.50;99.90;;;;;;5078400;28;20239;-78
2023/03/11 03:31:39;;;;;;;5.38;0.95;;;1.50;99.90;;;;;;5084755;27;20580;-74
2023/03/11 03:34:05;;;;;;;8.15;1.30;;;1.50;99.90;;;;;;5068178;27;20181;-76
2023/03/11 03:36:30;;;;;;;4.75;1.08;;;1.40;99.90;;;;;;5067478;28;20185;-74
2023/03/11 03:39:00;;;;;;;6.78;0.95;;;1.40;99.90;;;;;;5072728;28;20217;-74
2023/03/11 03:41:31;;;;;;;6.15;1.25;;;1.40;99.90;;;;;;5091892;28;20237;-73
2023/03/11 03:43:57;;;;;;;5.38;0.98;;;1.40;99.90;;;;;;5068460;28;20299;-79
2023/03/11 03:46:23;;;;;;;6.47;1.35;;;1.40;99.90;;;;;;5101109;28;20173;-73
2023/03/11 03:48:51;;;;;;;6.20;1.10;;;1.40;99.90;;;;;;5076592;28;20214;-74
2023/03/11 03:51:17;;;;;;;6.00;1.15;;;1.40;99.90;;;;;;5054078;28;20193;-73
2023/03/11 03:53:56;;;;;;;4.80;1.20;;;1.40;99.90;;;;;;5073505;28;20201;-74
2023/03/11 03:56:23;;;;;;;3.85;1.10;;;1.40;99.90;;;;;;5099653;27;20191;-73
2023/03/11 03:58:49;;;;;;;5.53;1.05;;;1.30;99.90;;;;;;5083639;28;20189;-74
2023/03/11 04:01:15;;;;;;;7.32;0.90;;;1.30;99.90;;;;;;5076491;28;20173;-75
2023/03/11 04:03:41;;;;;;;3.78;1.13;;;1.30;99.90;;;;;;5087903;28;20555;-74
2023/03/11 04:06:22;;;;;;;10.93;1.20;;;1.30;99.90;;;;;;5099162;27;20181;-72
2023/03/11 04:08:54;;;;;;;7.53;1.17;;;1.30;99.90;;;;;;5111871;27;20215;-73
2023/03/11 04:11:24;;;;;;;6.55;1.05;;;1.40;99.90;;;;;;5096119;28;20320;-72
2023/03/11 04:13:50;;;;;;;6.85;1.13;;;1.30;99.90;;;;;;5083021;27;20191;-75
2023/03/11 04:16:19;;;;;;;7.68;1.35;;;1.30;99.90;;;;;;5067076;28;20189;-75
2023/03/11 04:18:45;;;;;;;2.25;1.08;;;1.30;99.90;;;;;;5103871;27;20191;-73
2023/03/11 04:21:11;;;;;;;7.30;0.95;;;1.40;99.90;;;;;;5099513;27;20184;-75
2023/03/11 04:23:37;;;;;;;5.15;1.08;;;1.40;99.90;;;;;;5107329;27;20544;-74
2023/03/11 04:26:04;;;;;;;5.72;1.10;;;1.40;99.90;;;;;;5097552;28;20532;-74
2023/03/11 04:28:30;;;;;;;12.63;1.52;;;1.30;99.90;;;;;;5078066;28;20213;-75
2023/03/11 04:30:56;;;;;;;8.80;1.30;;;1.30;99.90;;;;;;5077906;27;20212;-74
2023/03/11 04:33:22;;;;;;;1.90;0.82;;;1.30;99.90;;;;;;5109321;27;20226;-74
2023/03/11 04:35:48;;;;;;;5.40;1.00;;;1.30;99.90;;;;;;5091225;28;20273;-77
2023/03/11 04:38:15;;;;;;;5.95;1.17;;;1.30;99.90;;;;;;5083232;27;20188;-73
2023/03/11 04:40:41;;;;;;;7.85;1.10;;;1.30;99.90;;;;;;5099269;27;20197;-74
2023/03/11 04:43:07;;;;;;;4.45;1.05;;;1.30;99.90;;;;;;5095329;28;20230;-74
2023/03/11 04:45:35;;;;;;;5.07;0.85;;;1.30;99.90;;;;;;5090773;28;20201;-74
2023/03/11 04:48:02;;;;;;;7.53;1.25;;;1.30;99.90;;;;;;5106408;28;20239;-74
2023/03/11 04:50:29;;;;;;;7.15;1.20;;;1.30;99.90;;;;;;5099351;28;20185;-77
2023/03/11 04:52:55;;;;;;;6.28;1.10;;;1.30;99.90;;;;;;5079912;27;20589;-74
2023/03/11 04:55:22;;;;;;;6.07;1.20;;;1.30;99.90;;;;;;5081328;28;20177;-75
2023/03/11 04:57:48;;;;;;;4.45;1.10;;;1.30;99.90;;;;;;5080736;28;20193;-74
2023/03/11 05:00:15;;;;;;;3.33;1.20;;;1.30;99.90;;;;;;5100598;28;20295;-73
2023/03/11 05:02:44;;;;;;;4.60;1.10;;;1.30;99.90;;;;;;5092931;28;20240;-73
2023/03/11 05:05:11;;;;;;;7.18;1.42;;;1.30;99.90;;;;;;5094139;28;20202;-74
2023/03/11 05:07:38;;;;;;;6.93;1.30;;;1.20;99.90;;;;;;5069800;28;20580;-75
2023/03/11 05:10:05;;;;;;;4.57;1.20;;;1.30;99.90;;;;;;5088575;28;20247;-73
2023/03/11 05:12:32;;;;;;;6.80;1.25;;;1.20;99.90;;;;;;5081674;28;20198;-74
2023/03/11 05:14:58;;;;;;;3.58;0.90;;;1.20;99.90;;;;;;5102991;28;20177;-73
2023/03/11 05:17:24;;;;;;;2.45;1.02;;;1.20;99.90;;;;;;5086195;28;20189;-73
2023/03/11 05:19:56;;;;;;;9.88;1.50;;;1.20;99.90;;;;;;5105150;28;20182;-73
2023/03/11 05:22:27;;;;;;;4.82;1.10;;;1.20;99.90;;;;;;5093191;28;20200;-73
2023/03/11 05:24:52;;;;;;;10.32;1.40;;;1.20;99.90;;;;;;5077133;28;20177;-73
2023/03/11 05:27:19;;;;;;;5.55;1.17;;;1.20;99.90;;;;;;5086853;28;20180;-73
2023/03/11 05:29:49;;;;;;;8.45;1.58;;;1.20;99.90;;;;;;5077948;28;20208;-78
2023/03/11 05:32:18;;;;;;;6.03;1.33;;;1.20;99.90;;;;;;5058685;28;20201;-72
2023/03/11 05:34:45;;;;;;;14.30;1.70;;;1.20;99.90;;;;;;5090189;28;20266;-74
2023/03/11 05:37:11;;;;;;;2.13;1.10;;;1.30;99.90;;;;;;5093085;28;20185;-74
2023/03/11 05:39:37;;;;;;;3.65;1.38;;;1.30;99.90;;;;;;5098332;28;20193;-77
2023/03/11 05:42:04;;;;;;;12.18;1.27;;;1.20;99.90;;;;;;5096780;28;20215;-75
2023/03/11 05:44:31;;;;;;;5.07;1.55;;;1.10;99.90;;;;;;5066138;28;20229;-73
2023/03/11 05:46:57;;;;;;;8.77;1.35;;;1.10;99.90;;;;;;5108484;28;20169;-73
2023/03/11 05:49:23;;;;;;;7.22;1.50;;;1.10;99.90;;;;;;5067084;28;20255;-74
2023/03/11 05:51:53;;;;;;;5.47;1.17;;;1.10;99.90;;;;;;5068862;28;20290;-73
2023/03/11 05:54:19;;;;;;;8.48;1.08;;;1.00;99.90;;;;;;5068943;28;20652;-72
2023/03/11 05:56:48;;;;;;;8.20;1.70;;;1.00;99.90;;;;;;5090288;27;20602;-76
2023/03/11 05:59:16;;;;;;;4.90;1.23;;;1.00;99.90;;;;;;5095358;28;20201;-75
2023/03/11 06:01:44;;;;;;;8.55;1.35;;;1.00;99.90;;;;;;5095921;28;20234;-74
2023/03/11 06:04:11;;;;;;;8.57;1.48;;;0.90;99.90;;;;;;5097505;28;20181;-73
2023/03/11 06:06:39;;;;;;;6.80;1.70;;;0.90;99.90;;;;;;5104805;27;20256;-73
2023/03/11 06:09:06;;;;;;;7.13;1.63;;;0.90;99.90;;;;;;5102628;28;20197;-75
2023/03/11 06:11:32;;;;;;;6.18;1.83;;;0.90;99.90;;;;;;5093163;27;20204;-74
2023/03/11 06:13:58;;;;;;;3.83;1.30;;;0.90;99.90;;;;;;5086241;28;20170;-73
2023/03/11 06:16:26;;;;;;;7.97;1.90;;;0.80;99.90;;;;;;5097422;28;20189;-73
2023/03/11 06:18:55;;;;;;;5.65;1.55;;;0.90;99.90;;;;;;5097403;28;20277;-73
2023/03/11 06:21:23;;;;;;;6.30;1.60;;;0.80;99.90;;;;;;5087723;28;20193;-73
2023/03/11 06:23:49;;;;;;;6.15;1.65;;;0.90;99.90;;;;;;5090940;28;20261;-73
2023/03/11 06:26:17;;;;;;;4.13;1.50;;;0.80;99.90;;;;;;5099060;27;20177;-73
2023/03/11 06:28:46;;;;;;;8.15;1.60;;;0.90;99.90;;;;;;5114781;27;20205;-72
2023/03/11 06:31:21;;;;;;;10.10;1.58;;;0.80;99.90;;;;;;5116769;27;20635;-75
2023/03/11 06:33:47;;;;;;;5.53;1.60;;;0.80;99.90;;;;;;5077703;28;20177;-73
2023/03/11 06:36:15;;;;;;;7.93;1.75;;;0.90;99.90;;;;;;5094896;28;20177;-73
2023/03/11 06:38:42;;;;;;;9.45;2.08;;;0.80;99.90;;;;;;5087533;28;20181;-74
2023/03/11 06:41:09;;;;;;;6.38;1.75;;;0.80;99.90;;;;;;5104705;27;20222;-73
2023/03/11 06:43:35;;;;;;;6.80;1.90;;;0.80;99.90;;;;;;5134513;27;20173;-74
2023/03/11 06:46:11;;;;;;;3.88;1.65;;;0.80;99.90;;;;;;5100257;28;20185;-73
2023/03/11 06:48:38;;;;;;;8.23;1.60;;;0.90;99.90;;;;;;5097475;28;20261;-74
2023/03/11 06:51:05;;;;;;;6.03;1.50;;;0.90;99.90;;;;;;5093577;27;20644;-74
2023/03/11 06:53:32;;;;;;;9.93;1.88;;;0.90;99.90;;;;;;5092539;27;20321;-73
2023/03/11 06:56:10;;;;;;;10.40;2.13;;;1.00;99.90;;;;;;5102822;28;20182;-73
2023/03/11 06:58:42;;;;;;;5.07;1.67;;;1.00;99.90;;;;;;5115334;28;20157;-73
2023/03/11 07:01:19;;;;;;;8.60;1.60;;;1.00;99.90;;;;;;5100731;27;20709;-74
2023/03/11 07:03:47;;;;;;;9.57;2.00;;;1.10;99.90;;;;;;5112534;28;20165;-73
2023/03/11 07:06:18;;;;;;;7.70;2.30;;;1.10;99.90;;;;;;5092724;28;20183;-74
2023/03/11 07:08:46;;;;;;;6.97;1.70;;;1.10;99.90;;;;;;5094130;28;20262;-74
2023/03/11 07:11:23;;;;;;;6.80;1.55;;;1.20;99.90;;;;;;5113954;28;20201;-74
2023/03/11 07:13:52;;;;;;;9.43;1.80;;;1.30;99.90;;;;;;5084474;27;20267;-74
2023/03/11 07:16:23;;;;;;;5.03;1.77;;;1.40;99.90;;;;;;5100384;27;20173;-73
2023/03/11 07:18:53;;;;;;;7.05;1.55;;;1.50;99.90;;;;;;5088707;28;20185;-75
2023/03/11 07:21:20;;;;;;;9.20;1.25;;;1.60;99.90;;;;;;5123094;27;20237;-73
2023/03/11 07:23:48;;;;;;;4.55;1.60;;;1.80;99.90;;;;;;5132903;27;20716;-74
2023/03/11 07:26:16;;;;;;;8.20;1.48;;;2.00;99.90;;;;;;5132149;27;20183;-74
2023/03/11 07:28:43;;;;;;;5.43;1.60;;;2.20;99.90;;;;;;5132990;27;20225;-74
2023/03/11 07:31:12;;;;;;;11.68;1.80;;;2.40;99.90;;;;;;5117714;27;20317;-73
2023/03/11 07:33:37;;;;;;;8.57;1.60;;;2.70;99.90;;;;;;5103832;27;20196;-73
2023/03/11 07:36:13;;;;;;;6.35;1.65;;;2.90;99.90;;;;;;5086560;28;20186;-74
2023/03/11 07:38:38;;;;;;;7.15;1.35;;;3.20;99.90;;;;;;5115497;28;20177;-73
2023/03/11 07:41:04;;;;;;;5.00;1.58;;;3.50;99.90;;;;;;5109610;28;20731;-79
2023/03/11 07:43:31;;;;;;;7.45;1.40;;;3.70;99.90;;;;;;5112014;27;20655;-73
2023/03/11 07:46:24;;;;;;;5.57;1.65;;;4.00;99.90;;;;;;5084290;27;20542;-73
2023/03/11 07:48:51;;;;;;;8.18;1.65;;;4.30;99.90;;;;;;5096406;28;20293;-72
2023/03/11 07:51:20;;;;;;;4.43;1.90;;;4.60;99.90;;;;;;5113556;27;20200;-74
2023/03/11 07:53:47;;;;;;;5.63;1.80;;;4.80;99.90;;;;;;5115494;28;20270;-77
2023/03/11 07:56:15;;;;;;;6.57;1.90;;;5.10;99.90;;;;;;5100164;27;20169;-75
2023/03/11 07:58:41;;;;;;;4.10;1.58;;;5.40;99.90;;;;;;5129757;27;20211;-75
2023/03/11 08:01:20;;;;;;;7.10;1.70;;;5.70;99.90;;;;;;5128783;27;20185;-76
2023/03/11 08:03:51;;;;;;;4.13;1.42;;;6.00;99.90;;;;;;5123210;27;20390;-74
2023/03/11 08:06:18;;;;;;;6.18;1.70;;;6.10;99.90;;;;;;5105106;27;20204;-74
2023/03/11 08:08:44;;;;;;;4.18;1.42;;;6.30;99.90;;;;;;5131303;27;20192;-76
2023/03/11 08:11:12;;;;;;;7.32;1.58;;;6.50;99.90;;;;;;5086212;27;20290;-75
2023/03/11 08:13:38;;;;;;;10.20;1.80;;;6.80;99.90;;;;;;5109195;27;20213;-76
2023/03/11 08:16:06;;;;;;;4.03;1.70;;;7.00;99.90;;;;;;5107177;27;20199;-80
2023/03/11 08:18:33;;;;;;;5.85;1.77;;;7.20;99.90;;;;;;5073028;28;20189;-75
2023/03/11 08:21:03;;;;;;;5.65;1.58;;;7.40;99.90;;;;;;5101188;27;20188;-78
2023/03/11 08:23:28;;;;;;;6.65;1.65;;;7.60;99.90;;;;;;5108889;27;20671;-82
2023/03/11 08:25:54;;;;;;;7.88;1.83;;;7.90;99.90;;;;;;5085219;27;20210;-77
2023/03/11 08:28:20;;;;;;;4.63;1.90;;;8.10;99.90;;;;;;5082887;28;20263;-76
2023/03/11 08:30:46;;;;;;;7.70;1.85;;;8.30;99.90;;;;;;5085357;28;21891;-80
2023/03/11 08:33:12;;;;;;;9.95;1.90;;;8.50;99.90;;;;;;5075256;28;20228;-75
2023/03/11 08:35:37;;;;;;;8.18;1.40;;;8.60;99.90;;;;;;5076367;28;20186;-75
2023/03/11 08:38:03;;;;;;;10.40;1.80;;;8.70;99.90;;;;;;5104204;28;20204;-75
2023/03/11 08:40:29;;;;;;;7.75;1.52;;;8.80;99.90;;;;;;5084638;28;20275;-81
2023/03/11 08:42:55;;;;;;;8.18;1.85;;;9.00;99.90;;;;;;5110798;27;20196;-74
2023/03/11 08:45:21;;;;;;;6.45;1.88;;;9.20;99.90;;;;;;5113792;28;20189;-74
2023/03/11 08:47:47;;;;;;;6.13;1.90;;;9.40;99.90;;;;;;5129875;27;20271;-75
2023/03/11 08:50:16;;;;;;;6.95;1.70;;;9.50;99.90;;;;;;5113840;27;20275;-78
2023/03/11 08:52:42;;;;;;;6.88;2.63;;;9.70;99.90;;;;;;5099656;28;20273;-74
2023/03/11 08:55:16;;;;;;;8.55;2.63;;;9.90;99.90;;;;;;5102358;27;20267;-76
2023/03/11 08:57:42;;;;;;;4.35;1.80;;;10.10;99.90;;;;;;5095757;28;20189;-75
2023/03/11 09:00:09;;;;;;;7.43;2.00;;;10.30;99.90;;;;;;5109256;28;21245;-79
2023/03/11 09:02:35;;;;;;;8.63;1.98;;;10.50;99.90;;;;;;5104444;28;20196;-75
2023/03/11 09:05:01;;;;;;;7.22;1.70;;;10.60;99.90;;;;;;5083008;27;20177;-78
2023/03/11 09:07:26;;;;;;;7.60;1.75;;;10.70;99.90;;;;;;5096631;27;20176;-78
2023/03/11 09:09:53;;;;;;;5.88;1.65;;;10.90;99.90;;;;;;5093318;28;20236;-74
2023/03/11 09:12:19;;;;;;;6.63;1.60;;;11.00;99.90;;;;;;5096695;28;20596;-75
2023/03/11 09:14:45;;;;;;;8.57;1.83;;;11.10;99.90;;;;;;5101924;28;20187;-75
2023/03/11 09:17:11;;;;;;;5.65;2.10;;;11.30;99.90;;;;;;5078238;28;20540;-77
2023/03/11 09:19:37;;;;;;;6.47;1.92;;;11.50;99.90;;;;;;5094674;28;20597;-74
2023/03/11 09:22:03;;;;;;;4.82;1.95;;;11.70;99.80;;;;;;5093758;28;20192;-74
2023/03/11 09:24:33;;;;;;;9.88;1.50;;;11.90;99.70;;;;;;5108525;28;20493;-75
2023/03/11 09:26:59;;;;;;;7.18;1.73;;;12.10;99.30;;;;;;5105664;28;20216;-75
2023/03/11 09:29:25;;;;;;;4.60;1.60;;;12.30;98.90;;;;;;5113030;28;20263;-74
2023/03/11 09:31:51;;;;;;;4.72;1.50;;;12.50;98.20;;;;;;5104472;28;20190;-75
2023/03/11 09:34:17;;;;;;;5.60;2.08;;;12.60;97.70;;;;;;5112981;27;20191;-79
2023/03/11 09:36:43;;;;;;;6.65;1.83;;;12.70;96.90;;;;;;5114239;27;20177;-75
2023/03/11 09:39:10;;;;;;;5.85;1.58;;;12.80;96.90;;;;;;5098878;28;20251;-75
2023/03/11 09:41:54;;;;;;;5.60;1.30;;;13.00;96.90;;;;;;5115210;28;20180;-73
2023/03/11 09:44:38;;;;;;;8.30;1.63;;;13.10;96.10;;;;;;5115046;27;20173;-74
2023/03/11 09:47:28;;;;;;;5.80;1.73;;;13.20;95.50;;;;;;5093791;27;20205;-73
2023/03/11 09:50:22;;;;;;;13.60;2.10;;;13.40;95.70;;;;;;5097006;27;20212;-73
2023/03/11 09:52:56;;;;;;;7.95;2.20;;;13.60;95.40;;;;;;5124391;27;20298;-73
2023/03/11 09:55:43;;;;;;;4.93;1.73;;;13.90;95.10;;;;;;5109513;27;20222;-75
2023/03/11 09:58:14;;;;;;;11.40;1.98;;;14.20;94.20;;;;;;5109873;27;20173;-73
2023/03/11 10:00:40;;;;;;;12.52;1.60;;;14.30;93.80;;;;;;5100624;28;20173;-74
2023/03/11 10:03:32;;;;;;;6.25;1.90;;;14.50;92.90;;;;;;5117128;28;20181;-74
2023/03/11 10:06:07;;;;;;;9.32;1.80;;;14.60;92.10;;;;;;5084295;27;20184;-74
2023/03/11 10:08:42;;;;;;;6.57;1.50;;;14.60;92.10;;;;;;5098548;28;20251;-74
2023/03/11 10:11:44;;;;;;;6.43;1.60;;;14.70;91.40;;;;;;5105852;27;20202;-74
2023/03/11 10:14:28;;;;;;;6.50;1.77;;;14.80;91.40;;;;;;5066165;28;20199;-75
2023/03/11 10:17:13;;;;;;;6.97;1.80;;;15.10;90.80;;;;;;5109969;28;20209;-74
2023/03/11 10:20:03;;;;;;;7.22;1.85;;;15.40;90.70;;;;;;5085721;28;20612;-74
2023/03/11 10:22:29;;;;;;;4.28;1.50;;;15.60;88.50;;;;;;5099244;27;20173;-74
2023/03/11 10:25:09;;;;;;;6.07;1.77;;;15.80;85.70;;;;;;5094277;28;20200;-82
2023/03/11 10:27:38;;;;;;;6.28;1.80;;;15.90;84.30;;;;;;5102814;27;20165;-77
2023/03/11 10:30:22;;;;;;;5.88;1.50;;;16.00;84.80;;;;;;5111571;27;20213;-74
2023/03/11 10:32:55;;;;;;;8.73;2.08;;;16.00;80.90;;;;;;5103570;27;20184;-78
2023/03/11 10:35:27;;;;;;;4.05;1.67;;;16.10;80.90;;;;;;5113474;28;20189;-75
2023/03/11 10:37:59;;;;;;;6.30;1.60;;;16.10;78.10;;;;;;5125614;27;20169;-77
2023/03/11 10:40:33;;;;;;;5.38;1.40;;;16.10;78.60;;;;;;5104120;27;20633;-76
2023/03/11 10:43:24;;;;;;;4.60;1.63;;;16.20;78.50;;;;;;5077364;27;20243;-77
2023/03/11 10:45:51;;;;;;;9.40;1.90;;;16.30;77.90;;;;;;5098402;27;20246;-75
2023/03/11 10:48:18;;;;;;;5.28;1.77;;;16.30;77.40;;;;;;5066055;27;20743;-76
2023/03/11 10:51:00;;;;;;;5.95;1.30;;;16.40;75.90;;;;;;5074135;28;20181;-74
2023/03/11 10:53:26;;;;;;;4.85;1.95;;;16.40;73.20;;;;;;5117897;27;20676;-75
2023/03/11 10:55:55;;;;;;;6.95;1.60;;;16.30;71.70;;;;;;5115439;27;20210;-75
2023/03/11 10:58:24;;;;;;;4.35;1.75;;;16.20;72.00;;;;;;5112239;27;20175;-75
2023/03/11 11:01:15;;;;;;;4.88;1.52;;;16.10;73.60;;;;;;5102427;27;20260;-81
2023/03/11 11:03:48;;;;;;;7.65;2.15;;;16.00;73.50;;;;;;5085278;28;20204;-76
2023/03/11 11:06:33;;;;;;;8.45;1.98;;;15.90;73.30;;;;;;5098485;27;20180;-78
2023/03/11 11:09:18;;;;;;;5.88;2.25;;;15.90;72.60;;;;;;5100214;27;20302;-75
2023/03/11 11:12:10;;;;;;;6.25;1.60;;;15.80;75.50;;;;;;5076630;27;20268;-75
2023/03/11 11:14:51;;;;;;;8.15;1.67;;;15.70;76.20;;;;;;5106475;27;20256;-80
2023/03/11 11:17:28;;;;;;;5.78;1.95;;;15.60;77.40;;;;;;5100528;27;20299;-75
2023/03/11 11:19:56;;;;;;;5.68;1.52;;;15.60;79.30;;;;;;5102125;27;20507;-74
2023/03/11 11:22:24;;;;;;;12.95;9.98;;;15.70;79.20;;;;;;5109451;27;20184;-77
2023/03/11 11:24:52;;;;;;;11.48;3.47;;;16.00;78.50;;;;;;5103717;28;20284;-75
2023/03/11 11:27:22;;;;;;;4.53;1.58;;;16.00;76.30;;;;;;5105934;27;20653;-75
2023/03/11 11:30:08;;;;;;;4.28;1.50;;;16.00;74.90;;;;;;5092284;28;20676;-75
2023/03/11 11:32:35;;;;;;;10.57;2.38;;;15.90;75.00;;;;;;5099802;27;20169;-75
2023/03/11 11:35:06;;;;;;;5.55;1.65;;;16.00;73.80;;;;;;5081128;28;20200;-81
2023/03/11 11:37:35;;;;;;;7.05;1.73;;;15.90;74.40;;;;;;5110539;27;20264;-80
2023/03/11 11:40:14;;;;;;;8.13;4.18;;;16.00;74.10;;;;;;5091951;27;20185;-77
2023/03/11 11:43:03;;;;;;;10.32;2.45;;;15.80;73.60;;;;;;5105504;27;20226;-80
2023/03/11 11:45:36;;;;;;;6.30;2.20;;;15.60;74.60;;;;;;5098472;27;20192;-79
2023/03/11 11:48:32;;;;;;;3.83;2.65;;;15.60;74.60;;;;;;5082865;28;20679;-77
2023/03/11 11:51:09;;;;;;;5.45;1.70;;;15.40;74.70;;;;;;5081967;27;20173;-79
2023/03/11 11:53:51;;;;;;;4.47;1.60;;;15.20;75.40;;;;;;5099940;27;20301;-76
2023/03/11 11:56:17;;;;;;;6.93;1.73;;;15.00;76.10;;;;;;5106490;27;20181;-75
2023/03/11 11:58:43;;;;;;;7.93;1.83;;;14.80;76.50;;;;;;5101526;27;20275;-75
2023/03/11 12:01:33;;;;;;;7.00;1.77;;;14.60;75.60;;;;;;5101832;27;20213;-80
2023/03/11 12:04:23;;;;;;;7.13;1.70;;;14.40;75.80;;;;;;5104295;28;20197;-74
2023/03/11 12:07:10;;;;;;;3.92;1.80;;;14.00;76.60;;;;;;5090122;28;20271;-79
2023/03/11 12:10:29;;;;;;;9.02;1.95;;;13.80;78.30;;;;;;5101737;28;20395;-73
2023/03/11 12:12:57;;;;;;;5.53;1.80;;;13.80;82.00;;;;;;5069384;28;20185;-73
2023/03/11 12:15:28;;;;;;;4.10;1.90;;;13.80;80.90;;;;;;5069127;28;20189;-74
2023/03/11 12:18:01;;;;;;;12.38;7.15;;;13.70;80.90;;;;;;5112006;28;20237;-74
2023/03/11 12:20:41;;;;;;;11.57;7.68;;;13.60;81.00;;;;;;5101690;27;20216;-81
2023/03/11 12:23:43;;;;;;;12.07;7.47;;;13.50;82.60;;;;;;5111609;27;20251;-74
2023/03/11 12:26:25;;;;;;;14.77;9.00;;;13.40;82.10;;;;;;5126106;27;20173;-76
2023/03/11 12:28:57;;;;;;;5.35;1.95;;;13.30;82.40;;;;;;5095267;28;20311;-75
2023/03/11 12:31:25;;;;;;;4.88;1.45;;;13.20;81.50;;;;;;5106816;27;20169;-74
2023/03/11 12:34:01;;;;;;;6.40;1.20;;;13.10;81.00;;;;;;5099398;28;20189;-75
2023/03/11 12:36:32;;;;;;;6.25;1.50;;;13.00;81.80;;;;;;5080546;27;20176;-73
2023/03/11 12:39:04;;;;;;;4.57;1.10;;;13.00;81.50;;;;;;5075257;28;20181;-73
2023/03/11 12:41:38;;;;;;;2.20;0.93;;;13.00;81.20;;;;;;5112705;27;20279;-74
2023/03/11 12:44:04;;;;;;;4.38;1.45;;;13.00;81.10;;;;;;5125017;27;20256;-73
2023/03/11 12:46:53;;;;;;;4.63;1.20;;;12.70;81.60;;;;;;5093828;28;20291;-74
2023/03/11 12:49:36;;;;;;;7.03;1.55;;;12.60;82.00;;;;;;5092193;28;20208;-73
2023/03/11 12:52:15;;;;;;;6.05;1.50;;;12.40;83.00;;;;;;5111220;28;20754;-73
2023/03/11 12:54:43;;;;;;;4.85;1.35;;;12.40;83.70;;;;;;5099746;28;20203;-74
2023/03/11 12:57:17;;;;;;;3.97;1.30;;;12.30;83.30;;;;;;5079788;28;20192;-78
2023/03/11 12:59:46;;;;;;;6.88;1.42;;;12.20;82.60;;;;;;5105429;27;20243;-75
2023/03/11 13:02:31;;;;;;;5.20;1.45;;;12.00;83.70;;;;;;5103571;27;20278;-78
2023/03/11 13:05:15;;;;;;;4.90;1.45;;;12.10;84.70;;;;;;5099485;27;20188;-79
2023/03/11 13:07:59;;;;;;;4.68;1.30;;;12.00;84.80;;;;;;5099086;28;20185;-76
2023/03/11 13:10:41;;;;;;;5.38;1.50;;;11.90;85.40;;;;;;5085480;28;20607;-74